Time;durP1;ratioP1;P1;durP2;ratioP2;P2;SDS_P1;SDS_P2;PMS_P1;PMS_P2;Temp;Humidity;BMP_temperature;BMP_pressure;BME280_temperature;BME280_humidity;BME280_pressure;Samples;Min_cycle;Max_cycle;Signal;HPM_P1;HPM_P2
2022/09/17 00:01:36;;;;;;;1999.90;999.90;;;22.50;99.90;;;;;;5269605;28;20380;-73
2022/09/17 00:04:09;;;;;;;1999.90;999.90;;;22.40;99.90;;;;;;5269557;28;20035;-73
2022/09/17 00:06:40;;;;;;;1999.90;999.90;;;22.40;99.90;;;;;;5268128;28;20047;-73
2022/09/17 00:09:11;;;;;;;1999.90;999.90;;;22.40;99.90;;;;;;5268037;28;20431;-73
2022/09/17 00:11:42;;;;;;;1999.90;999.90;;;22.30;99.90;;;;;;5269395;28;20398;-73
2022/09/17 00:14:15;;;;;;;1999.90;999.90;;;22.60;99.90;;;;;;5269272;28;20494;-73
2022/09/17 00:16:48;;;;;;;1999.90;999.90;;;22.50;99.90;;;;;;5269131;28;20086;-73
2022/09/17 00:19:21;;;;;;;1999.90;999.90;;;22.40;99.90;;;;;;5269356;28;20047;-73
2022/09/17 00:21:52;;;;;;;1999.90;999.90;;;22.50;99.90;;;;;;5269156;28;20016;-73
2022/09/17 00:24:23;;;;;;;1999.90;999.90;;;22.60;99.90;;;;;;5268982;28;20490;-73
2022/09/17 00:26:54;;;;;;;1999.90;999.90;;;22.70;99.90;;;;;;5268500;28;20028;-74
2022/09/17 00:29:24;;;;;;;1999.90;999.90;;;22.80;99.90;;;;;;5268855;28;20039;-74
2022/09/17 00:31:55;;;;;;;1999.90;999.90;;;22.60;99.90;;;;;;5269095;28;20028;-73
2022/09/17 00:34:26;;;;;;;1999.90;999.90;;;22.60;99.90;;;;;;5267484;28;20024;-73
2022/09/17 00:36:57;;;;;;;1999.90;999.90;;;22.70;99.90;;;;;;5268935;28;20110;-73
2022/09/17 00:39:27;;;;;;;1999.90;999.90;;;22.60;99.90;;;;;;5268882;28;20027;-73
2022/09/17 00:41:58;;;;;;;1999.90;999.90;;;22.60;99.90;;;;;;5267651;28;20027;-73
2022/09/17 00:44:50;;;;;;;1999.90;999.90;;;22.20;99.90;;;;;;5268594;28;20031;-74
2022/09/17 00:47:32;;;;;;;1999.90;999.90;;;22.00;99.90;;;;;;5268212;28;20070;-73
2022/09/17 00:50:16;;;;;;;1999.90;999.90;;;21.90;99.90;;;;;;5267196;28;20051;-73
2022/09/17 00:52:52;;;;;;;1999.90;999.90;;;21.90;99.90;;;;;;5266761;28;20024;-72
2022/09/17 00:55:48;;;;;;;1999.90;999.90;;;21.60;99.90;;;;;;5268526;28;20020;-72
2022/09/17 00:58:21;;;;;;;1999.90;999.90;;;21.20;99.90;;;;;;5265171;28;20092;-73
2022/09/17 01:00:52;;;;;;;1999.90;999.90;;;21.20;99.90;;;;;;5268415;28;20024;-73
2022/09/17 01:03:23;;;;;;;1999.90;999.90;;;21.00;99.90;;;;;;5268397;28;20039;-73
2022/09/17 01:06:03;;;;;;;1999.90;999.90;;;21.00;99.90;;;;;;5268230;28;20092;-73
2022/09/17 01:08:40;;;;;;;;;;;20.80;99.90;;;;;;5268959;28;20020;-72
2022/09/17 01:11:33;;;;;;;1999.90;999.90;;;20.60;99.90;;;;;;5268183;28;20000;-73
2022/09/17 01:14:14;;;;;;;1999.90;999.90;;;20.50;99.90;;;;;;5268124;28;20051;-73
2022/09/17 01:17:16;;;;;;;1999.90;999.90;;;20.30;99.90;;;;;;5266773;28;20043;-73
2022/09/17 01:23:05;;;;;;;1999.90;999.90;;;20.20;99.90;;;;;;5305419;22;20056;-73
2022/09/17 01:26:00;;;;;;;1999.90;999.90;;;19.90;99.90;;;;;;5267982;28;20024;-73
2022/09/17 01:28:52;;;;;;;1999.90;999.90;;;19.90;99.90;;;;;;5267979;28;20039;-74
2022/09/17 01:31:38;;;;;;;1999.90;999.90;;;20.00;99.90;;;;;;5267959;28;20023;-74
2022/09/17 01:34:23;;;;;;;1999.90;999.90;;;20.10;99.90;;;;;;5267614;28;20032;-73
2022/09/17 01:37:00;;;;;;;1999.90;999.90;;;19.70;99.90;;;;;;5266412;28;20024;-74
2022/09/17 01:39:34;;;;;;;1999.90;999.90;;;19.60;99.90;;;;;;5267730;28;20046;-74
2022/09/17 01:42:12;;;;;;;1999.90;999.90;;;19.90;99.90;;;;;;5267740;28;20503;-74
2022/09/17 01:44:52;;;;;;;1999.90;999.90;;;19.60;99.90;;;;;;5268070;28;20110;-74
2022/09/17 01:47:32;;;;;;;1999.90;999.90;;;19.70;99.90;;;;;;5267830;28;20055;-73
2022/09/17 01:50:09;;;;;;;1999.90;999.90;;;19.70;99.90;;;;;;5267624;28;20105;-74
2022/09/17 01:52:42;;;;;;;1999.90;999.90;;;19.30;99.90;;;;;;5267736;28;20036;-74
2022/09/17 01:55:16;;;;;;;1999.90;999.90;;;19.20;99.90;;;;;;5249838;28;20028;-73
2022/09/17 01:57:51;;;;;;;1999.90;999.90;;;19.20;99.90;;;;;;5267628;28;20032;-73
2022/09/17 02:00:23;;;;;;;1999.90;999.90;;;19.40;99.90;;;;;;5271666;28;20768;-73
2022/09/17 02:03:18;;;;;;;1999.90;999.90;;;19.70;99.90;;;;;;5254056;28;20052;-74
2022/09/17 02:06:10;;;;;;;1999.90;999.90;;;19.80;99.90;;;;;;5272262;28;20098;-74
2022/09/17 02:09:10;;;;;;;1999.90;999.90;;;19.80;99.90;;;;;;5272211;28;20395;-73
2022/09/17 02:11:48;;;;;;;1999.90;999.90;;;19.90;99.90;;;;;;5253722;28;20491;-74
2022/09/17 02:14:30;;;;;;;1999.90;999.90;;;20.20;99.90;;;;;;5271703;28;20099;-74
2022/09/17 02:17:20;;;;;;;1999.90;999.90;;;20.30;99.90;;;;;;5271567;28;20039;-73
2022/09/17 02:19:52;;;;;;;1999.90;999.90;;;20.30;99.90;;;;;;5271517;28;20040;-74
2022/09/17 02:22:58;;;;;;;1999.90;999.90;;;20.30;99.90;;;;;;5271660;28;20058;-73
2022/09/17 02:25:46;;;;;;;1999.90;999.90;;;20.50;99.90;;;;;;5271339;28;20058;-73
2022/09/17 02:28:26;;;;;;;1999.90;999.90;;;20.40;99.90;;;;;;5271467;28;20014;-73
2022/09/17 02:30:57;;;;;;;1999.90;999.90;;;20.20;99.90;;;;;;5271521;28;20035;-74
2022/09/17 02:33:30;;;;;;;1999.90;999.90;;;20.00;99.90;;;;;;5271286;28;20033;-74
2022/09/17 02:36:02;;;;;;;1999.90;999.90;;;20.10;99.90;;;;;;5271311;28;20024;-74
2022/09/17 02:38:33;;;;;;;1999.90;999.90;;;20.30;99.90;;;;;;5252825;28;20036;-74
2022/09/17 02:41:19;;;;;;;1999.90;999.90;;;20.30;99.90;;;;;;5271179;28;20031;-74
2022/09/17 02:44:01;;;;;;;1999.90;999.90;;;20.30;99.90;;;;;;5271107;28;20380;-74
2022/09/17 02:46:53;;;;;;;1999.90;999.90;;;20.40;99.90;;;;;;5271033;28;20491;-74
2022/09/17 02:49:42;;;;;;;1999.90;999.90;;;20.40;99.90;;;;;;5252888;28;20032;-73
2022/09/17 02:52:32;;;;;;;1999.90;999.90;;;20.30;99.90;;;;;;5271058;28;20035;-74
2022/09/17 02:55:05;;;;;;;1999.90;999.90;;;20.40;99.90;;;;;;5270867;28;20040;-74
2022/09/17 02:58:05;;;;;;;1999.90;999.90;;;20.40;99.90;;;;;;5270766;28;20067;-74
2022/09/17 03:00:36;;;;;;;1999.90;999.90;;;20.40;99.90;;;;;;5270959;28;20028;-74
2022/09/17 03:03:38;;;;;;;1999.90;999.90;;;20.20;99.90;;;;;;5270850;28;20020;-74
2022/09/17 03:06:09;;;;;;;1999.90;999.90;;;20.00;99.90;;;;;;5270834;28;20059;-74
2022/09/17 03:08:41;;;;;;;1999.90;999.90;;;20.20;99.90;;;;;;5270728;28;20062;-73
2022/09/17 03:11:12;;;;;;;1999.90;999.90;;;19.90;99.90;;;;;;5252090;28;20508;-74
2022/09/17 03:13:43;;;;;;;1999.90;999.90;;;19.90;99.90;;;;;;5270455;28;20111;-74
2022/09/17 03:16:14;;;;;;;1999.90;999.90;;;19.70;99.90;;;;;;5270617;28;20099;-74
2022/09/17 03:18:45;;;;;;;1999.90;999.90;;;19.90;99.90;;;;;;5270389;28;20065;-73
2022/09/17 03:21:16;;;;;;;1999.90;999.90;;;19.80;99.90;;;;;;5270129;28;20044;-73
2022/09/17 03:23:46;;;;;;;1999.90;999.90;;;20.00;99.90;;;;;;5270496;28;20020;-73
2022/09/17 03:26:18;;;;;;;1999.90;999.90;;;19.90;99.90;;;;;;5270643;28;20056;-73
2022/09/17 03:28:48;;;;;;;1999.90;999.90;;;20.10;99.90;;;;;;5270298;28;20024;-74
2022/09/17 03:31:19;;;;;;;1999.90;999.90;;;20.40;99.90;;;;;;5270260;28;20035;-74
2022/09/17 03:33:50;;;;;;;1999.90;999.90;;;20.40;99.90;;;;;;5270177;28;20051;-73
2022/09/17 03:36:21;;;;;;;1999.90;999.90;;;20.40;99.90;;;;;;5270556;28;20531;-74
2022/09/17 03:38:56;;;;;;;1999.90;999.90;;;20.40;99.90;;;;;;5251809;28;20679;-73
2022/09/17 03:41:27;;;;;;;1999.90;999.90;;;20.40;99.90;;;;;;5269978;28;20058;-73
2022/09/17 03:43:58;;;;;;;1999.90;999.90;;;20.30;99.90;;;;;;5269911;28;20028;-73
2022/09/17 03:46:28;;;;;;;1999.90;999.90;;;20.30;99.90;;;;;;5269994;28;20059;-73
2022/09/17 03:48:59;;;;;;;1999.90;999.90;;;20.30;99.90;;;;;;5269911;28;20116;-74
2022/09/17 03:51:30;;;;;;;1999.90;999.90;;;20.20;99.90;;;;;;5269028;28;20411;-73
2022/09/17 03:54:02;;;;;;;1999.90;999.90;;;20.30;99.90;;;;;;5269500;28;20631;-73
2022/09/17 03:56:33;;;;;;;1999.90;999.90;;;20.20;99.90;;;;;;5269818;28;20039;-73
2022/09/17 03:59:03;;;;;;;1999.90;999.90;;;20.40;99.90;;;;;;5269565;28;20032;-73
2022/09/17 04:01:35;;;;;;;1999.90;999.90;;;20.40;99.90;;;;;;5269419;28;20082;-73
2022/09/17 04:04:06;;;;;;;1999.90;999.90;;;20.30;99.90;;;;;;5251261;28;20016;-73
2022/09/17 04:06:37;;;;;;;1999.90;999.90;;;20.50;99.90;;;;;;5251366;28;20066;-73
2022/09/17 04:09:08;;;;;;;1999.90;999.90;;;20.60;99.90;;;;;;5269255;28;20446;-73
2022/09/17 04:11:39;;;;;;;1999.90;999.90;;;20.50;99.90;;;;;;5269433;28;20012;-73
2022/09/17 04:14:09;;;;;;;1999.90;999.90;;;20.60;99.90;;;;;;5268936;28;20378;-73
2022/09/17 04:16:40;;;;;;;1999.90;999.90;;;20.50;99.90;;;;;;5269260;28;20057;-73
2022/09/17 04:19:11;;;;;;;1999.90;999.90;;;20.50;99.90;;;;;;5250931;28;20032;-73
2022/09/17 04:21:42;;;;;;;1999.90;999.90;;;20.50;99.90;;;;;;5250214;28;20072;-73
2022/09/17 04:24:13;;;;;;;1999.90;999.90;;;20.40;99.90;;;;;;5251457;28;20028;-73
2022/09/17 04:26:43;;;;;;;1999.90;999.90;;;20.40;99.90;;;;;;5269216;28;20107;-73
2022/09/17 04:29:14;;;;;;;1999.90;999.90;;;20.40;99.90;;;;;;5269417;28;20082;-73
2022/09/17 04:31:45;;;;;;;1999.90;999.90;;;20.50;99.90;;;;;;5269261;28;20020;-73
2022/09/17 04:34:16;;;;;;;1999.90;999.90;;;20.60;99.90;;;;;;5269117;28;20509;-73
2022/09/17 04:36:46;;;;;;;1999.90;999.90;;;20.60;99.90;;;;;;5269011;28;20028;-73
2022/09/17 04:39:17;;;;;;;1999.90;999.90;;;20.70;99.90;;;;;;5250649;28;20754;-73
2022/09/17 04:41:48;;;;;;;1999.90;999.90;;;20.80;99.90;;;;;;5268778;28;20553;-73
2022/09/17 04:44:19;;;;;;;1999.90;999.90;;;20.80;99.90;;;;;;5268560;28;20387;-73
2022/09/17 04:46:49;;;;;;;1999.90;999.90;;;20.90;99.90;;;;;;5250536;28;20020;-73
2022/09/17 04:49:20;;;;;;;1999.90;999.90;;;20.90;99.90;;;;;;5268612;28;20107;-73
2022/09/17 04:51:51;;;;;;;1999.90;999.90;;;21.10;99.90;;;;;;5268581;28;20464;-73
2022/09/17 04:54:22;;;;;;;1999.90;999.90;;;21.20;99.90;;;;;;5268442;28;20492;-73
2022/09/17 04:56:53;;;;;;;1999.90;999.90;;;21.30;99.90;;;;;;5268392;28;20093;-73
2022/09/17 04:59:23;;;;;;;1999.90;999.90;;;21.40;99.90;;;;;;5268203;28;20075;-73
2022/09/17 05:01:54;;;;;;;1999.90;999.90;;;21.50;99.90;;;;;;5268250;28;20016;-73
2022/09/17 05:04:25;;;;;;;1999.90;999.90;;;21.60;99.90;;;;;;5268785;28;20392;-73
2022/09/17 05:06:56;;;;;;;1999.90;999.90;;;21.70;99.90;;;;;;5268118;28;20085;-73
2022/09/17 05:09:27;;;;;;;1999.90;999.90;;;21.80;99.90;;;;;;5268081;28;20028;-73
2022/09/17 05:11:58;;;;;;;1999.90;999.90;;;21.90;99.90;;;;;;5268101;28;20038;-73
2022/09/17 05:14:28;;;;;;;1999.90;999.90;;;21.90;99.90;;;;;;5268115;28;20078;-73
2022/09/17 05:16:59;;;;;;;1999.90;999.90;;;22.00;99.90;;;;;;5268119;28;20024;-73
2022/09/17 05:19:30;;;;;;;1999.90;999.90;;;22.30;99.90;;;;;;5267784;28;20491;-73
2022/09/17 05:22:02;;;;;;;1999.90;999.90;;;22.50;99.90;;;;;;5267675;28;20062;-73
2022/09/17 05:24:38;;;;;;;1999.90;999.90;;;22.40;99.90;;;;;;5268148;28;20035;-73
2022/09/17 05:27:08;;;;;;;1999.90;999.90;;;22.50;99.90;;;;;;5267943;28;20032;-73
2022/09/17 05:29:39;;;;;;;1999.90;999.90;;;22.70;99.90;;;;;;5268136;28;20533;-73
2022/09/17 05:32:11;;;;;;;1999.90;999.90;;;22.80;99.90;;;;;;5267710;28;20038;-73
2022/09/17 05:34:42;;;;;;;1999.90;999.90;;;23.00;99.90;;;;;;5268023;28;20039;-73
2022/09/17 05:37:13;;;;;;;1999.90;999.90;;;23.00;99.90;;;;;;5267888;28;20017;-73
2022/09/17 05:39:43;;;;;;;1999.90;999.90;;;23.10;99.90;;;;;;5268024;28;20471;-73
2022/09/17 05:42:14;;;;;;;1999.90;999.90;;;23.10;99.90;;;;;;5267815;28;20028;-73
2022/09/17 05:44:45;;;;;;;1999.90;999.90;;;23.40;99.90;;;;;;5267631;28;20031;-74
2022/09/17 05:47:16;;;;;;;1999.90;999.90;;;23.40;99.90;;;;;;5267714;28;20464;-73
2022/09/17 05:49:46;;;;;;;1999.90;999.90;;;23.60;99.90;;;;;;5267418;28;20031;-73
2022/09/17 05:52:18;;;;;;;1999.90;999.90;;;23.40;99.90;;;;;;5267573;28;20063;-73
2022/09/17 05:54:49;;;;;;;1999.90;999.90;;;23.60;99.90;;;;;;5267698;28;20103;-73
2022/09/17 05:57:19;;;;;;;1999.90;999.90;;;23.80;99.90;;;;;;5267423;28;20447;-74
2022/09/17 05:59:50;;;;;;;1999.90;999.90;;;24.10;99.90;;;;;;5267525;28;20028;-73
2022/09/17 06:02:21;;;;;;;1999.90;999.90;;;24.00;99.90;;;;;;5267512;28;20024;-73
2022/09/17 06:04:52;;;;;;;1999.90;999.90;;;24.30;99.90;;;;;;5267443;28;20059;-73
2022/09/17 06:07:23;;;;;;;1999.90;999.90;;;24.30;99.90;;;;;;5267318;28;20453;-73
2022/09/17 06:09:53;;;;;;;1999.90;999.90;;;24.60;99.90;;;;;;5267321;28;20020;-73
2022/09/17 06:12:24;;;;;;;1999.90;999.90;;;24.70;99.90;;;;;;5267218;28;20460;-73
2022/09/17 06:14:55;;;;;;;1999.90;999.90;;;24.70;99.90;;;;;;5267237;28;20020;-73
2022/09/17 06:17:26;;;;;;;1999.90;999.90;;;24.70;99.90;;;;;;5267392;28;20047;-73
2022/09/17 06:19:58;;;;;;;1999.90;999.90;;;24.80;99.90;;;;;;5248916;28;20020;-73
2022/09/17 06:22:28;;;;;;;1999.90;999.90;;;25.00;99.90;;;;;;5267157;28;20131;-73
2022/09/17 06:25:01;;;;;;;1999.90;999.90;;;25.10;99.90;;;;;;5267374;28;20119;-73
2022/09/17 06:27:33;;;;;;;1999.90;999.90;;;25.30;99.90;;;;;;5267064;28;20020;-74
2022/09/17 06:30:04;;;;;;;1999.90;999.90;;;25.40;99.90;;;;;;5267169;28;20032;-74
2022/09/17 06:32:35;;;;;;;1999.90;999.90;;;25.40;99.90;;;;;;5267106;28;20029;-73
2022/09/17 06:35:07;;;;;;;1999.90;999.90;;;25.60;99.90;;;;;;5267344;28;20035;-72
2022/09/17 06:37:39;;;;;;;1999.90;999.90;;;25.70;99.90;;;;;;5267278;28;20090;-73
2022/09/17 06:40:10;;;;;;;1999.90;999.90;;;25.90;99.90;;;;;;5267430;28;20495;-74
2022/09/17 06:42:41;;;;;;;1999.90;999.90;;;25.90;99.90;;;;;;5266793;28;20063;-74
2022/09/17 06:45:12;;;;;;;1999.90;999.90;;;26.20;99.90;;;;;;5268580;28;20017;-73
2022/09/17 06:47:43;;;;;;;1999.90;999.90;;;26.20;99.90;;;;;;5271164;28;20035;-73
2022/09/17 06:50:14;;;;;;;1999.90;999.90;;;26.50;99.90;;;;;;5270764;28;20044;-73
2022/09/17 06:52:52;;;;;;;1999.90;999.90;;;26.80;99.90;;;;;;5271003;28;20086;-73
2022/09/17 06:55:23;;;;;;;1999.90;999.90;;;26.70;99.90;;;;;;5270900;28;20020;-73
2022/09/17 06:57:58;;;;;;;1999.90;999.90;;;27.00;99.90;;;;;;5270662;28;20089;-73
2022/09/17 07:00:30;;;;;;;1999.90;999.90;;;27.10;99.90;;;;;;5270637;28;20040;-72
2022/09/17 07:03:00;;;;;;;1999.90;999.90;;;27.50;99.90;;;;;;5270756;28;20016;-74
2022/09/17 07:05:31;;;;;;;1999.90;999.90;;;27.40;99.90;;;;;;5270745;28;20023;-73
2022/09/17 07:08:03;;;;;;;1999.90;999.90;;;27.30;99.90;;;;;;5270556;28;20024;-73
2022/09/17 07:10:33;;;;;;;1999.90;999.90;;;27.50;99.90;;;;;;5270531;28;20058;-73
2022/09/17 07:13:04;;;;;;;1999.90;999.90;;;27.70;99.90;;;;;;5270448;28;20016;-73
2022/09/17 07:15:35;;;;;;;1999.90;999.90;;;27.90;99.90;;;;;;5270397;28;20093;-72
2022/09/17 07:18:10;;;;;;;1999.90;999.90;;;27.90;99.90;;;;;;5270135;28;20032;-73
2022/09/17 07:20:41;;;;;;;1999.90;999.90;;;27.80;99.90;;;;;;5269945;28;20086;-74
2022/09/17 07:23:12;;;;;;;1999.90;999.90;;;28.10;99.90;;;;;;5270217;28;20024;-74
2022/09/17 07:25:42;;;;;;;1999.90;999.90;;;28.20;99.90;;;;;;5270405;28;20107;-73
2022/09/17 07:28:13;;;;;;;1999.90;999.90;;;28.20;99.90;;;;;;5270260;28;20359;-73
2022/09/17 07:30:44;;;;;;;1999.90;999.90;;;28.40;99.90;;;;;;5270292;28;20027;-73
2022/09/17 07:33:17;;;;;;;1999.90;999.90;;;28.50;99.90;;;;;;5270215;28;20046;-74
2022/09/17 07:35:56;;;;;;;1999.90;999.90;;;28.60;99.90;;;;;;5270077;28;20021;-73
2022/09/17 07:38:28;;;;;;;644.20;107.82;;;28.80;99.90;;;;;;5269929;28;20051;-73
2022/09/17 07:41:12;;;;;;;1266.05;531.05;;;28.80;99.90;;;;;;5269970;28;20408;-73
2022/09/17 07:43:43;;;;;;;1999.90;999.90;;;28.50;99.90;;;;;;5269977;28;20020;-74
2022/09/17 07:46:19;;;;;;;1510.25;752.22;;;28.80;99.90;;;;;;5269983;28;20042;-73
2022/09/17 07:48:50;;;;;;;1999.90;999.90;;;28.90;99.90;;;;;;5270308;28;20456;-73
2022/09/17 07:51:24;;;;;;;1999.90;999.90;;;28.80;99.90;;;;;;5269855;28;20499;-73
2022/09/17 07:53:57;;;;;;;1999.90;999.90;;;29.00;99.90;;;;;;5269496;28;20036;-74
2022/09/17 07:56:28;;;;;;;1999.90;999.90;;;29.00;99.90;;;;;;5269051;28;20028;-73
2022/09/17 07:59:01;;;;;;;1999.90;999.90;;;29.30;99.90;;;;;;5269874;28;20040;-73
2022/09/17 08:01:38;;;;;;;1999.90;999.90;;;29.50;99.90;;;;;;5270039;28;20047;-73
2022/09/17 08:04:09;;;;;;;1999.90;999.90;;;29.30;99.90;;;;;;5269904;28;20068;-73
2022/09/17 08:06:39;;;;;;;1999.90;999.90;;;29.50;99.90;;;;;;5269525;28;20464;-73
2022/09/17 08:09:11;;;;;;;1999.90;999.90;;;29.30;99.90;;;;;;5269507;28;20107;-74
2022/09/17 08:11:42;;;;;;;1999.90;999.90;;;29.60;99.90;;;;;;5269425;28;20513;-73
2022/09/17 08:14:14;;;;;;;1999.90;999.90;;;29.30;99.90;;;;;;5269254;28;20074;-74
2022/09/17 08:16:46;;;;;;;1999.90;999.90;;;29.50;99.90;;;;;;5269488;28;20047;-73
2022/09/17 08:19:17;;;;;;;1999.90;999.90;;;29.50;99.90;;;;;;5269199;28;20044;-73
2022/09/17 08:21:48;;;;;;;1999.90;999.90;;;29.60;99.90;;;;;;5269007;28;20048;-73
2022/09/17 08:24:19;;;;;;;1999.90;999.90;;;29.80;99.90;;;;;;5268991;28;20353;-73
2022/09/17 08:26:50;;;;;;;1999.90;999.90;;;29.80;99.90;;;;;;5268843;28;20051;-73
2022/09/17 08:29:21;;;;;;;1999.90;999.90;;;30.20;99.90;;;;;;5268973;28;20134;-73
2022/09/17 08:31:52;;;;;;;1999.90;999.90;;;30.40;99.90;;;;;;5268786;28;20054;-74
2022/09/17 08:34:23;;;;;;;1999.90;999.90;;;30.30;99.90;;;;;;5269004;28;20039;-73
2022/09/17 08:36:54;;;;;;;1999.90;999.90;;;30.90;99.90;;;;;;5268844;28;20025;-73
2022/09/17 08:39:24;;;;;;;1161.63;526.88;;;30.90;94.80;;;;;;5268846;28;20036;-73
2022/09/17 08:42:17;;;;;;;1999.90;999.90;;;31.00;94.70;;;;;;5268894;28;20016;-73
2022/09/17 08:44:49;;;;;;;1999.90;999.90;;;30.80;93.20;;;;;;5269034;28;20027;-73
2022/09/17 08:47:47;;;;;;;1999.90;999.90;;;31.00;94.80;;;;;;5268822;28;20357;-74
2022/09/17 08:50:31;;;;;;;1999.90;999.90;;;31.10;92.30;;;;;;5265073;28;20607;-73
2022/09/17 08:53:05;;;;;;;1999.90;999.90;;;31.30;91.10;;;;;;5268572;28;20036;-73
2022/09/17 08:55:55;;;;;;;1999.90;999.90;;;31.10;89.60;;;;;;5268476;28;20065;-73
2022/09/17 08:58:40;;;;;;;1999.90;999.90;;;31.40;88.50;;;;;;5268441;28;20039;-74
2022/09/17 09:01:35;;;;;;;1999.90;999.90;;;31.30;89.80;;;;;;5268645;28;20537;-73
2022/09/17 09:04:21;;;;;;;1999.90;999.90;;;31.40;93.30;;;;;;5268537;28;20020;-73
2022/09/17 09:06:59;;;;;;;1999.90;999.90;;;31.60;94.60;;;;;;5268196;28;20022;-73
2022/09/17 09:09:45;;;;;;;1999.90;999.90;;;31.30;94.30;;;;;;5268199;28;20016;-74
2022/09/17 09:12:27;;;;;;;1999.90;999.90;;;31.30;94.10;;;;;;5268669;28;20103;-73
2022/09/17 09:15:01;;;;;;;1999.90;999.90;;;31.30;94.60;;;;;;5268448;28;20016;-73
2022/09/17 09:17:43;;;;;;;1999.90;999.90;;;31.40;93.70;;;;;;5268235;28;20068;-73
2022/09/17 09:20:38;;;;;;;1999.90;999.90;;;31.30;92.30;;;;;;5267873;28;20038;-74
2022/09/17 09:23:26;;;;;;;1999.90;999.90;;;31.60;93.20;;;;;;5268060;28;20357;-74
2022/09/17 09:26:13;;;;;;;1999.90;999.90;;;31.80;91.10;;;;;;5268029;28;20028;-74
2022/09/17 09:28:51;;;;;;;1999.90;999.90;;;32.00;87.50;;;;;;5268044;28;20047;-74
2022/09/17 09:31:36;;;;;;;1999.90;999.90;;;32.20;88.40;;;;;;5249852;28;20027;-74
2022/09/17 09:34:09;;;;;;;1999.90;999.90;;;32.20;87.00;;;;;;5249648;28;20071;-74
2022/09/17 09:36:40;;;;;;;1999.90;999.90;;;32.10;88.60;;;;;;5249377;28;20115;-73
2022/09/17 09:39:20;;;;;;;1999.90;999.90;;;32.20;86.40;;;;;;5267780;28;20510;-73
2022/09/17 09:42:05;;;;;;;1999.90;999.90;;;32.20;85.50;;;;;;5267928;28;20383;-72
2022/09/17 09:44:36;;;;;;;1999.90;999.90;;;32.40;85.40;;;;;;5267566;28;20024;-73
2022/09/17 09:47:23;;;;;;;1999.90;999.90;;;32.10;83.00;;;;;;5267438;28;20089;-73
2022/09/17 09:50:06;;;;;;;1999.90;999.90;;;32.30;85.10;;;;;;5267520;28;20039;-72
2022/09/17 09:52:50;;;;;;;1999.90;999.90;;;32.30;81.40;;;;;;5249068;28;20081;-73
2022/09/17 09:55:39;;;;;;;1999.90;999.90;;;32.60;80.30;;;;;;5267833;28;20059;-73
2022/09/17 09:58:40;;;;;;;1999.90;999.90;;;32.20;79.00;;;;;;5267559;28;20036;-72
2022/09/17 10:01:19;;;;;;;1999.90;999.90;;;32.60;78.30;;;;;;5267750;28;20036;-71
2022/09/17 10:03:51;;;;;;;;;;;32.60;76.40;;;;;;5249814;28;20028;-72
2022/09/17 10:06:22;;;;;;;1999.90;999.90;;;33.00;74.50;;;;;;5267370;28;19908;-72
2022/09/17 10:08:55;;;;;;;1999.90;999.90;;;32.90;74.50;;;;;;5267469;28;20054;-72
2022/09/17 10:11:29;;;;;;;1999.90;999.90;;;33.20;71.40;;;;;;5267243;28;20036;-73
2022/09/17 10:14:23;;;;;;;1999.90;999.90;;;33.20;69.60;;;;;;5267410;28;20036;-72
2022/09/17 10:17:19;;;;;;;1999.90;999.90;;;33.10;69.50;;;;;;5267536;28;20070;-72
2022/09/17 10:20:04;;;;;;;1999.90;999.90;;;33.10;69.40;;;;;;5268632;28;20037;-72
2022/09/17 10:22:46;;;;;;;1999.90;999.90;;;33.50;71.60;;;;;;5271596;28;20127;-72
2022/09/17 10:25:31;;;;;;;1999.90;999.90;;;33.30;69.80;;;;;;5271740;28;20336;-72
2022/09/17 10:28:05;;;;;;;1999.90;999.90;;;33.20;70.40;;;;;;5271945;28;20101;-72
2022/09/17 10:30:35;;;;;;;1999.90;999.90;;;33.30;72.90;;;;;;5271679;28;20363;-72
2022/09/17 10:33:24;;;;;;;1999.90;999.90;;;33.70;73.30;;;;;;5236858;28;20050;-72
2022/09/17 10:36:05;;;;;;;1999.90;999.90;;;34.20;72.10;;;;;;5271664;28;20107;-72
2022/09/17 10:38:38;;;;;;;1999.90;999.90;;;33.60;69.80;;;;;;5271209;28;20079;-73
2022/09/17 10:41:09;;;;;;;1999.90;999.90;;;33.90;69.80;;;;;;5271414;28;20027;-72
2022/09/17 10:43:40;;;;;;;1999.90;999.90;;;33.50;69.20;;;;;;5271275;28;20099;-72
2022/09/17 10:46:18;;;;;;;1999.90;999.90;;;33.40;69.30;;;;;;5271332;28;20017;-71
2022/09/17 10:49:04;;;;;;;1999.90;999.90;;;33.50;69.90;;;;;;5271361;28;20032;-72
2022/09/17 10:51:36;;;;;;;1999.90;999.90;;;33.50;68.50;;;;;;5271142;28;20023;-72
2022/09/17 10:54:28;;;;;;;1999.90;999.90;;;33.60;70.30;;;;;;5271208;28;20065;-72
2022/09/17 10:57:00;;;;;;;1999.90;999.90;;;33.40;70.80;;;;;;5270796;28;20357;-72
2022/09/17 10:59:43;;;;;;;1999.90;999.90;;;34.10;71.90;;;;;;5270717;28;20506;-72
2022/09/17 11:02:45;;;;;;;1999.90;999.90;;;34.20;68.80;;;;;;5270988;28;20048;-72
2022/09/17 11:05:15;;;;;;;1999.90;999.90;;;33.80;68.50;;;;;;5270873;28;20036;-72
2022/09/17 11:08:05;;;;;;;1999.90;999.90;;;33.70;67.30;;;;;;5270688;28;20031;-73
2022/09/17 11:10:57;;;;;;;1999.90;999.90;;;33.40;67.70;;;;;;5270700;28;20060;-72
2022/09/17 11:14:07;;;;;;;1999.90;999.90;;;34.10;67.50;;;;;;5270747;28;20028;-72
2022/09/17 11:17:21;;;;;;;1999.90;999.90;;;33.90;65.90;;;;;;5270609;28;20046;-72
2022/09/17 11:20:28;;;;;;;1999.90;999.90;;;33.90;65.80;;;;;;5270286;28;20035;-72
2022/09/17 11:23:26;;;;;;;1999.90;999.90;;;33.90;67.40;;;;;;5270001;28;20511;-72
2022/09/17 11:26:32;;;;;;;1999.90;999.90;;;33.70;67.20;;;;;;5270369;28;20034;-72
2022/09/17 11:29:25;;;;;;;1999.90;999.90;;;33.50;66.20;;;;;;5185531;28;20034;-71
2022/09/17 11:32:24;;;;;;;1999.90;999.90;;;33.90;68.50;;;;;;5268031;28;20047;-72
2022/09/17 11:35:31;;;;;;;1999.90;999.90;;;33.90;68.40;;;;;;5270383;28;20032;-72
2022/09/17 11:38:24;;;;;;;1999.90;999.90;;;34.10;67.90;;;;;;5267184;28;20093;-72
2022/09/17 11:41:00;;;;;;;1999.90;999.90;;;34.00;66.60;;;;;;5251535;28;20056;-73
2022/09/17 11:43:49;;;;;;;1999.90;999.90;;;34.20;67.30;;;;;;5268913;28;20016;-72
2022/09/17 11:46:23;;;;;;;1999.90;999.90;;;34.30;66.90;;;;;;5269781;28;20345;-72
2022/09/17 11:49:12;;;;;;;1999.90;999.90;;;34.20;65.50;;;;;;5269160;28;20363;-72
2022/09/17 11:51:47;;;;;;;1999.90;999.90;;;34.00;64.00;;;;;;5269916;28;20036;-72
2022/09/17 11:54:51;;;;;;;1999.90;999.90;;;34.00;64.60;;;;;;5270038;28;20851;-72
2022/09/17 11:57:26;;;;;;;1999.90;999.90;;;33.90;63.80;;;;;;5231096;28;20483;-72
2022/09/17 12:00:18;;;;;;;1999.90;999.90;;;34.70;64.30;;;;;;5269849;28;20048;-71
2022/09/17 12:02:55;;;;;;;1999.90;999.90;;;34.20;63.60;;;;;;5269778;28;20032;-73
2022/09/17 12:05:40;;;;;;;1999.90;999.90;;;34.00;63.90;;;;;;5269910;28;20031;-72
2022/09/17 12:08:36;;;;;;;1999.90;999.90;;;33.90;63.60;;;;;;5269493;28;20023;-72
2022/09/17 12:11:26;;;;;;;1999.90;999.90;;;33.80;65.10;;;;;;5269453;28;20464;-73
2022/09/17 12:14:04;;;;;;;1999.90;999.90;;;34.00;65.50;;;;;;5269484;28;20028;-72
2022/09/17 12:16:42;;;;;;;1999.90;999.90;;;33.80;65.80;;;;;;5269440;28;20055;-72
2022/09/17 12:19:21;;;;;;;1999.90;999.90;;;33.80;66.80;;;;;;5269019;28;20039;-72
2022/09/17 12:22:16;;;;;;;1999.90;999.90;;;33.90;66.00;;;;;;5269082;28;20048;-73
2022/09/17 12:24:50;;;;;;;1999.90;999.90;;;34.00;66.40;;;;;;5269234;28;20020;-72
2022/09/17 12:27:21;;;;;;;1999.90;999.90;;;33.90;66.10;;;;;;5268841;28;20030;-72
2022/09/17 12:30:10;;;;;;;1999.90;999.90;;;34.20;66.60;;;;;;5269095;28;20028;-72
2022/09/17 12:33:07;;;;;;;1999.90;999.90;;;34.30;67.90;;;;;;5269225;28;20682;-73
2022/09/17 12:36:18;;;;;;;1999.90;999.90;;;34.30;66.50;;;;;;5269126;28;20055;-72
2022/09/17 12:38:52;;;;;;;1999.90;999.90;;;34.40;66.70;;;;;;5268908;28;20043;-72
2022/09/17 12:41:36;;;;;;;1999.90;999.90;;;34.30;67.40;;;;;;5268741;28;20051;-72
2022/09/17 12:44:32;;;;;;;1999.90;999.90;;;33.90;67.60;;;;;;5250075;28;20036;-71
2022/09/17 12:47:36;;;;;;;1999.90;999.90;;;33.80;66.30;;;;;;5268927;28;20452;-72
2022/09/17 12:50:49;;;;;;;1999.90;999.90;;;34.20;68.70;;;;;;5268749;28;20035;-72
2022/09/17 12:53:33;;;;;;;1999.90;999.90;;;34.00;68.10;;;;;;5183382;28;20453;-72
2022/09/17 12:56:49;;;;;;;1999.90;999.90;;;33.90;67.90;;;;;;5262294;28;20487;-73